createdAt,value
2019-02-06T00:01:29.858Z,3.00
2019-02-06T00:03:58.879Z,2.90
2019-02-06T00:06:27.932Z,2.90
2019-02-06T00:08:57.241Z,2.90
2019-02-06T00:11:28.147Z,2.90
2019-02-06T00:13:57.138Z,2.90
2019-02-06T00:16:26.197Z,2.90
2019-02-06T00:19:50.078Z,2.90
2019-02-06T00:22:20.030Z,2.90
2019-02-06T00:24:49.032Z,2.90
2019-02-06T00:27:18.565Z,2.90
2019-02-06T00:29:47.559Z,2.90
2019-02-06T00:32:16.619Z,2.90
2019-02-06T00:34:45.564Z,2.80
2019-02-06T00:37:14.464Z,2.80
2019-02-06T00:39:43.373Z,2.90
2019-02-06T00:42:42.472Z,2.80
2019-02-06T00:45:11.872Z,2.80
2019-02-06T00:47:40.783Z,2.80
2019-02-06T00:50:11.106Z,2.80
2019-02-06T00:52:44.314Z,2.80
2019-02-06T00:55:13.323Z,2.80
2019-02-06T00:57:42.299Z,2.80
2019-02-06T01:00:16.523Z,2.80
2019-02-06T01:06:13.817Z,2.80
2019-02-06T01:08:43.409Z,2.80
2019-02-06T01:11:12.665Z,2.80
2019-02-06T01:13:41.948Z,2.90
2019-02-06T01:16:11.127Z,2.80
2019-02-06T01:18:40.397Z,2.90
2019-02-06T01:21:09.347Z,2.90
2019-02-06T01:23:40.005Z,2.90
2019-02-06T01:26:31.064Z,2.90
2019-02-06T01:28:59.995Z,2.90
2019-02-06T01:31:30.191Z,2.90
2019-02-06T01:33:59.117Z,2.90
2019-02-06T01:36:28.577Z,2.90
2019-02-06T01:38:57.533Z,2.80
2019-02-06T01:41:26.460Z,2.90
2019-02-06T01:43:55.432Z,2.90
2019-02-06T01:46:24.487Z,2.90
2019-02-06T01:48:58.729Z,2.90
2019-02-06T01:51:28.350Z,2.90
2019-02-06T01:53:58.038Z,2.90
2019-02-06T01:56:27.030Z,2.90
2019-02-06T01:58:56.116Z,2.90
2019-02-06T02:01:25.494Z,2.90
2019-02-06T02:03:54.818Z,3.00
2019-02-06T02:06:24.236Z,3.00
2019-02-06T02:08:59.913Z,3.00
2019-02-06T02:11:29.871Z,3.00
2019-02-06T02:13:58.892Z,3.10
2019-02-06T02:16:27.860Z,3.00
2019-02-06T02:18:56.788Z,3.10
2019-02-06T02:21:25.786Z,3.10
2019-02-06T02:23:54.894Z,3.10
2019-02-06T02:26:23.875Z,3.20
2019-02-06T02:28:52.893Z,3.20
2019-02-06T02:31:22.371Z,3.20
2019-02-06T02:33:57.098Z,3.20
2019-02-06T02:36:26.470Z,3.30
2019-02-06T02:38:55.436Z,3.20
2019-02-06T02:41:29.064Z,3.30
2019-02-06T02:47:28.380Z,3.30
2019-02-06T02:49:57.328Z,3.30
2019-02-06T02:52:26.550Z,3.40
2019-02-06T02:54:55.418Z,3.30
2019-02-06T02:57:25.111Z,3.40
2019-02-06T02:59:55.872Z,3.40
2019-02-06T03:02:32.141Z,3.40
2019-02-06T03:05:05.792Z,3.50
2019-02-06T03:07:34.979Z,3.50
2019-02-06T03:10:04.711Z,3.60
2019-02-06T03:12:33.619Z,3.60
2019-02-06T03:15:02.555Z,3.60
2019-02-06T03:17:33.554Z,3.60
2019-02-06T03:20:02.861Z,3.70
2019-02-06T03:22:32.979Z,3.70
2019-02-06T03:25:02.410Z,3.80
2019-02-06T03:31:13.678Z,3.80
2019-02-06T03:33:42.766Z,3.80
2019-02-06T03:36:11.789Z,3.80
2019-02-06T03:38:41.095Z,3.80
2019-02-06T03:41:10.773Z,3.90
2019-02-06T03:43:40.069Z,3.90
2019-02-06T03:46:09.101Z,3.80
2019-02-06T03:48:40.867Z,3.90
2019-02-06T03:51:10.171Z,3.90
2019-02-06T03:54:36.343Z,3.90
2019-02-06T03:57:09.306Z,3.90
2019-02-06T03:59:40.127Z,3.90
2019-02-06T04:02:09.017Z,3.90
2019-02-06T04:04:38.387Z,3.90
2019-02-06T04:07:07.384Z,4.00
2019-02-06T04:09:36.328Z,4.00
2019-02-06T04:12:05.399Z,4.00
2019-02-06T04:14:34.323Z,4.00
2019-02-06T04:17:03.306Z,4.00
2019-02-06T04:19:33.398Z,4.00
2019-02-06T04:22:04.703Z,4.00
2019-02-06T04:24:35.971Z,4.00
2019-02-06T04:27:05.396Z,4.00
2019-02-06T04:29:38.104Z,4.00
2019-02-06T04:32:07.148Z,4.00
2019-02-06T04:34:36.161Z,4.00
2019-02-06T04:37:08.608Z,4.00
2019-02-06T04:39:37.572Z,4.00
2019-02-06T04:42:06.853Z,4.00
2019-02-06T04:44:36.667Z,4.00
2019-02-06T04:47:06.050Z,4.00
2019-02-06T04:49:34.936Z,4.10
2019-02-06T04:52:04.295Z,4.00
2019-02-06T04:54:33.213Z,4.00
2019-02-06T04:57:02.159Z,4.00
2019-02-06T04:59:31.495Z,4.00
2019-02-06T05:02:00.767Z,4.00
2019-02-06T05:04:29.717Z,4.00
2019-02-06T05:06:59.443Z,4.00
2019-02-06T05:09:28.346Z,4.00
2019-02-06T05:11:59.533Z,4.00
2019-02-06T05:14:28.416Z,4.00
2019-02-06T05:16:57.435Z,4.00
2019-02-06T05:19:28.159Z,4.00
2019-02-06T05:21:57.509Z,4.00
2019-02-06T05:24:26.547Z,4.00
2019-02-06T05:26:55.822Z,4.00
2019-02-06T05:29:24.719Z,4.00
2019-02-06T05:31:53.636Z,4.00
2019-02-06T05:34:22.709Z,4.00
2019-02-06T05:36:53.637Z,4.00
2019-02-06T05:39:22.728Z,3.90
2019-02-06T05:41:52.126Z,3.90
2019-02-06T05:44:21.337Z,3.90
2019-02-06T05:46:50.317Z,3.90
2019-02-06T05:49:20.763Z,4.00
2019-02-06T05:51:50.049Z,4.00
2019-02-06T05:54:19.571Z,4.00
2019-02-06T05:56:48.621Z,3.90
2019-02-06T05:59:17.582Z,4.00
2019-02-06T06:01:47.680Z,3.90
2019-02-06T06:04:16.727Z,4.00
2019-02-06T06:06:46.113Z,4.00
2019-02-06T06:09:17.077Z,3.90
2019-02-06T06:11:46.012Z,3.90
2019-02-06T06:14:15.426Z,3.90
2019-02-06T06:16:46.679Z,4.00
2019-02-06T06:19:15.704Z,3.90
2019-02-06T06:22:18.153Z,3.90
2019-02-06T06:24:50.783Z,3.90
2019-02-06T06:29:54.655Z,3.90
2019-02-06T06:32:24.669Z,3.90
2019-02-06T06:34:53.713Z,3.90
2019-02-06T06:37:23.331Z,3.90
2019-02-06T06:39:53.186Z,3.80
2019-02-06T06:42:25.991Z,3.90
2019-02-06T06:44:55.338Z,3.80
2019-02-06T06:47:24.692Z,3.80
2019-02-06T06:49:54.640Z,3.80
2019-02-06T06:52:30.952Z,3.80
2019-02-06T06:55:00.393Z,3.80
2019-02-06T06:57:32.550Z,3.80
2019-02-06T07:00:03.123Z,3.80
2019-02-06T07:02:32.421Z,3.90
2019-02-06T07:05:05.758Z,3.90
2019-02-06T07:07:34.845Z,3.90
2019-02-06T07:10:05.061Z,3.90
2019-02-06T07:12:34.388Z,3.80
2019-02-06T07:15:04.376Z,3.90
2019-02-06T07:17:34.498Z,3.90
2019-02-06T07:20:04.893Z,3.80
2019-02-06T07:22:34.258Z,3.80
2019-02-06T07:25:03.978Z,3.80
2019-02-06T07:27:32.997Z,3.80
2019-02-06T07:30:02.258Z,3.80
2019-02-06T07:32:31.602Z,3.80
2019-02-06T07:35:00.937Z,3.80
2019-02-06T07:37:30.367Z,3.80
2019-02-06T07:39:59.373Z,3.80
2019-02-06T07:42:28.391Z,3.80
2019-02-06T07:44:58.101Z,3.80
2019-02-06T07:47:27.631Z,3.90
2019-02-06T07:49:56.597Z,3.80
2019-02-06T07:52:27.191Z,3.80
2019-02-06T07:54:56.457Z,3.90
2019-02-06T07:57:25.459Z,3.90
2019-02-06T07:59:55.699Z,3.90
2019-02-06T08:02:24.817Z,3.90
2019-02-06T08:04:53.699Z,3.90
2019-02-06T08:07:26.170Z,3.90
2019-02-06T08:12:30.065Z,3.90
2019-02-06T08:14:59.466Z,3.90
2019-02-06T08:17:28.563Z,3.90
2019-02-06T08:19:57.565Z,4.00
2019-02-06T08:22:55.084Z,4.00
2019-02-06T08:25:24.080Z,3.90
2019-02-06T08:27:53.918Z,4.00
2019-02-06T08:30:28.032Z,4.00
2019-02-06T08:32:56.955Z,4.00
2019-02-06T08:35:25.943Z,4.00
2019-02-06T08:37:56.785Z,4.00
2019-02-06T08:40:26.339Z,4.00
2019-02-06T08:42:55.392Z,4.10
2019-02-06T08:45:25.066Z,4.10
2019-02-06T08:47:54.858Z,4.10
2019-02-06T08:50:24.739Z,4.10
2019-02-06T08:52:53.842Z,4.20
2019-02-06T08:55:25.400Z,4.20
2019-02-06T08:57:54.560Z,4.20
2019-02-06T09:00:37.147Z,4.20
2019-02-06T09:03:07.302Z,4.20
2019-02-06T09:05:36.682Z,4.30
2019-02-06T09:08:06.468Z,4.30
2019-02-06T09:10:37.602Z,4.30
2019-02-06T09:13:07.208Z,4.30
2019-02-06T09:15:36.457Z,4.40
2019-02-06T09:18:07.336Z,4.40
2019-02-06T09:20:38.589Z,4.40
2019-02-06T09:23:08.692Z,4.40
2019-02-06T09:25:40.508Z,4.40
2019-02-06T09:28:09.462Z,4.40
2019-02-06T09:30:40.151Z,4.40
2019-02-06T09:33:09.347Z,4.50
2019-02-06T09:35:38.304Z,4.50
2019-02-06T09:38:07.583Z,4.50
2019-02-06T09:40:37.757Z,4.50
2019-02-06T09:43:10.177Z,4.50
2019-02-06T09:45:40.055Z,4.60
2019-02-06T09:48:12.253Z,4.60
2019-02-06T09:50:42.127Z,4.60
2019-02-06T09:53:11.388Z,4.60
2019-02-06T09:55:40.309Z,4.60
2019-02-06T09:58:09.308Z,4.60
2019-02-06T10:00:38.948Z,4.70
2019-02-06T10:03:09.964Z,4.70
2019-02-06T10:05:39.030Z,4.70
2019-02-06T10:08:08.128Z,4.70
2019-02-06T10:10:37.107Z,4.70
2019-02-06T10:13:13.156Z,4.80
2019-02-06T10:15:46.338Z,4.80
2019-02-06T10:18:18.074Z,4.80
2019-02-06T10:20:50.218Z,4.90
2019-02-06T10:23:19.393Z,4.90
2019-02-06T10:25:48.617Z,4.90
2019-02-06T10:28:17.596Z,5.00
2019-02-06T10:30:48.802Z,5.00
2019-02-06T10:33:20.412Z,5.00
2019-02-06T10:35:52.235Z,5.10
2019-02-06T10:38:21.298Z,5.00
2019-02-06T10:40:50.463Z,5.00
2019-02-06T10:43:31.259Z,5.10
2019-02-06T10:45:53.810Z,5.10
2019-02-06T10:48:23.196Z,5.20
2019-02-06T10:50:53.711Z,5.20
2019-02-06T10:53:23.022Z,5.30
2019-02-06T10:55:52.253Z,5.30
2019-02-06T10:58:21.515Z,5.30
2019-02-06T11:00:56.642Z,5.30
2019-02-06T11:03:25.610Z,5.40
2019-02-06T11:05:54.841Z,5.40
2019-02-06T11:08:24.662Z,5.40
2019-02-06T11:10:54.031Z,5.40
2019-02-06T11:13:22.959Z,5.50
2019-02-06T11:15:52.465Z,5.50
2019-02-06T11:18:21.758Z,5.50
2019-02-06T11:20:54.167Z,5.50
2019-02-06T11:23:23.370Z,5.50
2019-02-06T11:25:53.355Z,5.50
2019-02-06T11:28:23.091Z,5.50
2019-02-06T11:30:52.143Z,5.50
2019-02-06T11:33:21.866Z,5.60
2019-02-06T11:35:50.842Z,5.60
2019-02-06T11:38:19.869Z,5.50
2019-02-06T11:40:49.306Z,5.60
2019-02-06T11:43:18.712Z,5.50
2019-02-06T11:45:50.220Z,5.50
2019-02-06T11:48:19.223Z,5.50
2019-02-06T11:50:48.392Z,5.50
2019-02-06T11:53:26.125Z,5.60
2019-02-06T11:55:55.726Z,5.60
2019-02-06T11:58:25.003Z,5.70
2019-02-06T12:01:13.058Z,5.70
2019-02-06T12:03:47.172Z,5.70
2019-02-06T12:06:16.089Z,5.70
2019-02-06T12:08:45.142Z,5.70
2019-02-06T12:11:16.051Z,5.70
2019-02-06T12:13:48.679Z,5.70
2019-02-06T12:16:18.155Z,5.80
2019-02-06T12:18:47.807Z,5.80
2019-02-06T12:21:18.149Z,5.80
2019-02-06T12:23:47.814Z,5.80
2019-02-06T12:26:16.866Z,5.80
2019-02-06T12:28:46.200Z,5.90
2019-02-06T12:31:15.384Z,5.90
2019-02-06T12:33:44.469Z,5.90
2019-02-06T12:36:15.786Z,5.90
2019-02-06T12:38:53.035Z,5.90
2019-02-06T12:41:15.924Z,5.90
2019-02-06T12:43:44.922Z,5.90
2019-02-06T12:46:14.089Z,6.00
2019-02-06T12:48:43.200Z,5.90
2019-02-06T12:51:13.056Z,6.00
2019-02-06T12:53:42.585Z,6.00
2019-02-06T12:56:12.103Z,6.00
2019-02-06T12:58:41.117Z,6.00
2019-02-06T13:01:10.020Z,6.00
2019-02-06T13:03:38.923Z,6.10
2019-02-06T13:06:09.027Z,6.00
2019-02-06T13:08:38.805Z,6.00
2019-02-06T13:11:08.165Z,6.00
2019-02-06T13:13:37.272Z,6.00
2019-02-06T13:16:06.313Z,6.00
2019-02-06T13:18:35.540Z,6.00
2019-02-06T13:21:04.610Z,6.00
2019-02-06T13:23:34.863Z,6.00
2019-02-06T13:26:04.461Z,6.00
2019-02-06T13:28:33.787Z,6.00
2019-02-06T13:31:05.370Z,6.00
2019-02-06T13:33:34.431Z,6.00
2019-02-06T13:36:06.192Z,6.00
2019-02-06T13:38:35.711Z,6.00
2019-02-06T13:41:07.827Z,6.00
2019-02-06T13:43:37.205Z,6.10
2019-02-06T13:46:06.529Z,6.00
2019-02-06T13:48:35.711Z,6.10
2019-02-06T13:51:16.381Z,6.00
2019-02-06T13:53:35.640Z,6.00
2019-02-06T13:56:05.300Z,6.00
2019-02-06T13:58:34.240Z,6.00
2019-02-06T14:01:03.524Z,6.00
2019-02-06T14:03:33.551Z,6.00
2019-02-06T14:06:02.864Z,6.00
2019-02-06T14:08:32.747Z,6.00
2019-02-06T14:11:01.676Z,6.00
2019-02-06T14:13:30.647Z,6.10
2019-02-06T14:15:59.713Z,6.00
2019-02-06T14:18:28.789Z,6.00
2019-02-06T14:25:05.846Z,6.00
2019-02-06T14:27:49.447Z,6.10
2019-02-06T14:30:48.105Z,6.00
2019-02-06T14:33:48.979Z,6.00
2019-02-06T14:37:11.422Z,6.00
2019-02-06T14:39:54.027Z,6.10
2019-02-06T14:42:56.680Z,6.00
2019-02-06T14:46:02.646Z,6.00
2019-02-06T14:49:09.214Z,6.00
2019-02-06T14:52:15.403Z,6.10
2019-02-06T14:55:31.030Z,6.00
2019-02-06T14:58:27.551Z,6.00
2019-02-06T15:01:31.662Z,6.10
2019-02-06T15:04:35.511Z,6.00
2019-02-06T15:07:41.809Z,6.10
2019-02-06T15:10:51.208Z,6.00
2019-02-06T15:13:38.901Z,6.10
2019-02-06T15:16:36.794Z,6.00
2019-02-06T15:19:51.082Z,6.00
2019-02-06T15:22:47.196Z,6.00
2019-02-06T15:28:57.177Z,6.10
2019-02-06T15:32:13.199Z,6.00
2019-02-06T15:35:10.158Z,6.00
2019-02-06T15:38:14.465Z,6.00
2019-02-06T15:41:30.980Z,6.00
2019-02-06T15:44:00.922Z,6.00
2019-02-06T15:47:05.867Z,6.00
2019-02-06T15:50:26.264Z,6.00
2019-02-06T15:53:30.201Z,6.00
2019-02-06T15:56:43.678Z,6.00
2019-02-06T15:59:20.507Z,6.00
2019-02-06T16:02:49.945Z,6.00
2019-02-06T16:05:51.998Z,6.00
2019-02-06T16:08:39.360Z,6.00
2019-02-06T16:11:48.859Z,5.90
2019-02-06T16:14:40.867Z,6.00
2019-02-06T16:17:42.820Z,6.00
2019-02-06T16:20:31.594Z,6.00
2019-02-06T16:23:46.537Z,5.90
2019-02-06T16:27:05.448Z,5.90
2019-02-06T16:30:16.737Z,6.00
2019-02-06T16:33:38.963Z,6.00
2019-02-06T16:36:39.709Z,6.00
2019-02-06T16:39:49.813Z,6.00
2019-02-06T16:42:48.962Z,6.00
2019-02-06T16:45:57.000Z,5.90
2019-02-06T16:48:44.949Z,5.90
2019-02-06T16:51:27.660Z,6.00
2019-02-06T16:54:05.662Z,5.90
2019-02-06T16:57:19.071Z,5.90
2019-02-06T17:00:27.138Z,5.90
2019-02-06T17:03:43.321Z,5.90
2019-02-06T17:06:44.402Z,5.90
2019-02-06T17:09:50.366Z,5.90
2019-02-06T17:12:56.495Z,5.90
2019-02-06T17:16:25.102Z,5.90
2019-02-06T17:19:23.963Z,6.00
2019-02-06T17:22:52.177Z,6.00
2019-02-06T17:25:45.560Z,6.00
2019-02-06T17:28:51.883Z,6.00
2019-02-06T17:31:57.172Z,6.00
2019-02-06T17:34:52.215Z,6.00
2019-02-06T17:38:20.636Z,6.00
2019-02-06T17:41:28.280Z,6.00
2019-02-06T17:44:26.605Z,6.00
2019-02-06T17:47:20.914Z,5.90
2019-02-06T17:50:40.307Z,6.00
2019-02-06T17:53:36.562Z,6.00
2019-02-06T17:56:05.635Z,6.00
2019-02-06T17:58:37.956Z,6.00
2019-02-06T18:01:27.290Z,6.00
2019-02-06T18:04:00.294Z,6.00
2019-02-06T18:06:29.556Z,6.00
2019-02-06T18:11:44.846Z,6.00
2019-02-06T18:14:13.938Z,6.00
2019-02-06T18:16:43.044Z,6.00
2019-02-06T18:19:12.900Z,6.00
2019-02-06T18:21:41.827Z,6.00
2019-02-06T18:24:11.311Z,6.00
2019-02-06T18:26:45.786Z,6.00
2019-02-06T18:29:16.576Z,6.00
2019-02-06T18:31:45.851Z,5.90
2019-02-06T18:34:18.772Z,5.90
2019-02-06T18:36:47.792Z,6.00
2019-02-06T18:39:18.617Z,6.00
2019-02-06T18:41:47.793Z,6.00
2019-02-06T18:44:17.511Z,6.00
2019-02-06T18:46:48.838Z,6.00
2019-02-06T18:49:17.864Z,6.00
2019-02-06T18:51:47.034Z,6.00
2019-02-06T18:54:16.125Z,6.00
2019-02-06T18:56:45.544Z,6.00
2019-02-06T18:59:15.051Z,6.00
2019-02-06T19:01:44.486Z,6.00
2019-02-06T19:04:16.171Z,6.10
2019-02-06T19:06:45.357Z,6.10
2019-02-06T19:09:16.806Z,6.10
2019-02-06T19:11:46.095Z,6.10
2019-02-06T19:14:15.748Z,6.10
2019-02-06T19:16:45.611Z,6.10
2019-02-06T19:19:24.856Z,6.10
2019-02-06T19:21:45.745Z,6.10
2019-02-06T19:24:17.753Z,6.10
2019-02-06T19:26:46.683Z,6.10
2019-02-06T19:29:15.834Z,6.10
2019-02-06T19:31:45.417Z,6.10
2019-02-06T19:34:14.515Z,6.10
2019-02-06T19:36:43.726Z,6.10
2019-02-06T19:39:13.134Z,6.20
2019-02-06T19:41:42.397Z,6.20
2019-02-06T19:44:12.020Z,6.20
2019-02-06T19:46:41.157Z,6.20
2019-02-06T19:49:14.105Z,6.20
2019-02-06T19:51:53.189Z,6.20
2019-02-06T19:54:25.387Z,6.20
2019-02-06T19:56:54.500Z,6.30
2019-02-06T19:59:23.534Z,6.30
2019-02-06T20:01:53.025Z,6.30
2019-02-06T20:04:22.170Z,6.30
2019-02-06T20:06:54.045Z,6.30
2019-02-06T20:09:22.400Z,6.30
2019-02-06T20:11:51.515Z,6.30
2019-02-06T20:14:23.258Z,6.30
2019-02-06T20:16:53.581Z,6.30
2019-02-06T20:19:23.396Z,6.30
2019-02-06T20:21:52.926Z,6.30
2019-02-06T20:24:23.393Z,6.30
2019-02-06T20:26:52.857Z,6.30
2019-02-06T20:29:25.274Z,6.30
2019-02-06T20:31:54.658Z,6.30
2019-02-06T20:34:24.291Z,6.30
2019-02-06T20:36:53.803Z,6.30
2019-02-06T20:39:23.265Z,6.30
2019-02-06T20:41:52.315Z,6.30
2019-02-06T20:44:21.709Z,6.30
2019-02-06T20:46:51.065Z,6.30
2019-02-06T20:49:20.175Z,6.30
2019-02-06T20:51:49.710Z,6.30
2019-02-06T20:54:18.708Z,6.30
2019-02-06T20:56:47.914Z,6.30
2019-02-06T20:59:18.070Z,6.30
2019-02-06T21:01:49.535Z,6.30
2019-02-06T21:04:18.676Z,6.30
2019-02-06T21:06:47.804Z,6.30
2019-02-06T21:09:19.115Z,6.30
2019-02-06T21:11:48.233Z,6.30
2019-02-06T21:14:17.659Z,6.30
2019-02-06T21:16:46.742Z,6.30
2019-02-06T21:19:15.939Z,6.30
2019-02-06T21:21:45.364Z,6.30
2019-02-06T21:24:14.557Z,6.40
2019-02-06T21:26:44.557Z,6.30
2019-02-06T21:29:14.590Z,6.30
2019-02-06T21:31:44.736Z,6.30
2019-02-06T21:34:13.756Z,6.40
2019-02-06T21:36:42.851Z,6.40
2019-02-06T21:39:12.430Z,6.40
2019-02-06T21:41:41.556Z,6.40
2019-02-06T21:44:10.782Z,6.40
2019-02-06T21:46:39.954Z,6.40
2019-02-06T21:49:08.999Z,6.40
2019-02-06T21:51:44.093Z,6.40
2019-02-06T21:54:13.305Z,6.50
2019-02-06T21:56:42.919Z,6.40
2019-02-06T21:59:13.720Z,6.40
2019-02-06T22:01:43.891Z,6.50
2019-02-06T22:04:15.291Z,6.50
2019-02-06T22:06:45.179Z,6.40
2019-02-06T22:09:17.602Z,6.50
2019-02-06T22:11:47.128Z,6.50
2019-02-06T22:14:16.270Z,6.50
2019-02-06T22:16:51.693Z,6.50
2019-02-06T22:19:21.489Z,6.50
2019-02-06T22:21:50.639Z,6.50
2019-02-06T22:24:20.093Z,6.40
2019-02-06T22:26:50.948Z,6.40
2019-02-06T22:29:22.399Z,6.50
2019-02-06T22:31:51.470Z,6.50
2019-02-06T22:34:20.424Z,6.50
2019-02-06T22:36:50.297Z,6.40
2019-02-06T22:39:19.316Z,6.40
2019-02-06T22:41:48.306Z,6.50
2019-02-06T22:44:17.307Z,6.50
2019-02-06T22:46:46.290Z,6.50
2019-02-06T22:49:16.184Z,6.40
2019-02-06T22:51:45.107Z,6.40
2019-02-06T22:54:14.093Z,6.50
2019-02-06T22:57:11.295Z,6.40
2019-02-06T22:59:43.383Z,6.40
2019-02-06T23:02:13.135Z,6.50
2019-02-06T23:04:44.005Z,6.40
2019-02-06T23:07:16.116Z,6.50
2019-02-06T23:09:45.012Z,6.40
2019-02-06T23:12:15.904Z,6.50
2019-02-06T23:14:44.876Z,6.50
2019-02-06T23:20:42.665Z,6.50
2019-02-06T23:23:12.016Z,6.50
2019-02-06T23:25:43.242Z,6.50
2019-02-06T23:28:13.358Z,6.60
2019-02-06T23:30:43.761Z,6.60
2019-02-06T23:33:13.984Z,6.60
2019-02-06T23:35:43.638Z,6.60
2019-02-06T23:38:13.833Z,6.60
2019-02-06T23:40:42.962Z,6.60
2019-02-06T23:43:12.520Z,6.60
2019-02-06T23:45:41.424Z,6.60
2019-02-06T23:48:12.177Z,6.60
2019-02-06T23:50:42.093Z,6.60
2019-02-06T23:53:11.071Z,6.60
2019-02-06T23:55:40.029Z,6.60
2019-02-06T23:58:09.001Z,6.60
